createdAt,value
2022-12-20T00:01:35.188Z,101419.44
2022-12-20T00:05:37.818Z,101422.28
2022-12-20T00:09:39.254Z,101422.31
2022-12-20T00:13:41.199Z,101401.81
2022-12-20T00:17:42.724Z,101406.28
2022-12-20T00:21:44.245Z,101412.63
2022-12-20T00:25:45.818Z,101407.50
2022-12-20T00:29:47.283Z,101402.56
2022-12-20T00:33:50.629Z,101386.84
2022-12-20T00:37:52.065Z,101376.47
2022-12-20T00:41:53.528Z,101385.72
2022-12-20T00:45:55.304Z,101392.16
2022-12-20T00:49:56.764Z,101390.53
2022-12-20T00:53:58.334Z,101397.50
2022-12-20T00:57:59.797Z,101388.25
2022-12-20T01:02:01.464Z,101382.03
2022-12-20T01:06:03.296Z,101392.03
2022-12-20T01:10:05.072Z,101386.09
2022-12-20T01:14:10.721Z,101387.88
2022-12-20T01:18:12.203Z,101386.56
2022-12-20T01:22:13.662Z,101383.44
2022-12-20T01:26:17.962Z,101391.28
2022-12-20T01:30:19.414Z,101391.94
2022-12-20T01:34:20.927Z,101380.31
2022-12-20T01:38:22.463Z,101387.44
2022-12-20T01:42:23.952Z,101379.81
2022-12-20T01:46:28.409Z,101374.16
2022-12-20T01:50:29.863Z,101359.72
2022-12-20T01:54:37.597Z,101358.44
2022-12-20T01:58:40.268Z,101368.31
2022-12-20T02:02:43.866Z,101357.41
2022-12-20T02:06:45.499Z,101358.72
2022-12-20T02:10:55.445Z,101353.28
2022-12-20T02:14:59.783Z,101357.34
2022-12-20T02:19:26.477Z,101361.22
2022-12-20T02:24:05.334Z,101353.59
2022-12-20T02:28:42.256Z,101355.78
2022-12-20T02:32:49.277Z,101352.22
2022-12-20T02:36:51.419Z,101349.47
2022-12-20T02:40:58.062Z,101349.09
2022-12-20T02:45:18.000Z,101339.81
2022-12-20T02:49:23.819Z,101329.50
2022-12-20T02:53:25.390Z,101325.91
2022-12-20T02:57:42.647Z,101322.16
2022-12-20T03:01:55.148Z,101310.16
2022-12-20T03:05:56.962Z,101308.03
2022-12-20T03:09:58.387Z,101308.13
2022-12-20T03:13:59.939Z,101298.66
2022-12-20T03:18:01.408Z,101305.06
2022-12-20T03:22:02.946Z,101297.94
2022-12-20T03:26:04.819Z,101318.13
2022-12-20T03:30:07.092Z,101303.25
2022-12-20T03:34:08.570Z,101304.56
2022-12-20T03:38:10.132Z,101305.88
2022-12-20T03:42:11.697Z,101315.38
2022-12-20T03:46:13.282Z,101320.53
2022-12-20T03:50:15.288Z,101318.59
2022-12-20T03:54:16.790Z,101309.16
2022-12-20T03:58:18.273Z,101315.38
2022-12-20T04:02:20.550Z,101301.25
2022-12-20T04:06:23.668Z,101300.91
2022-12-20T04:10:25.212Z,101307.13
2022-12-20T04:14:26.664Z,101314.75
2022-12-20T04:18:28.149Z,101317.72
2022-12-20T04:22:29.636Z,101296.75
2022-12-20T04:26:31.399Z,101289.81
2022-12-20T04:30:32.875Z,101295.75
2022-12-20T04:34:34.373Z,101289.53
2022-12-20T04:38:35.971Z,101285.56
2022-12-20T04:42:37.389Z,101297.75
2022-12-20T04:46:39.115Z,101283.13
2022-12-20T04:50:40.768Z,101284.53
2022-12-20T04:54:42.235Z,101280.47
2022-12-20T04:58:44.032Z,101289.22
2022-12-20T05:02:45.696Z,101291.97
2022-12-20T05:06:47.248Z,101283.41
2022-12-20T05:10:48.980Z,101272.84
2022-12-20T05:14:50.414Z,101286.25
2022-12-20T05:18:51.850Z,101277.22
2022-12-20T05:23:11.557Z,101283.75
2022-12-20T05:27:13.029Z,101275.09
2022-12-20T05:31:14.574Z,101271.44
2022-12-20T05:35:16.124Z,101265.84
2022-12-20T05:39:17.720Z,101262.19
2022-12-20T05:43:20.746Z,101256.47
2022-12-20T05:47:22.218Z,101262.47
2022-12-20T05:51:23.887Z,101257.78
2022-12-20T05:55:25.355Z,101264.19
2022-12-20T05:59:27.452Z,101250.19
2022-12-20T06:03:28.994Z,101253.03
2022-12-20T06:07:31.729Z,101242.75
2022-12-20T06:11:33.682Z,101260.06
2022-12-20T06:15:35.542Z,101256.81
2022-12-20T06:19:37.005Z,101266.94
2022-12-20T06:23:38.681Z,101270.00
2022-12-20T06:27:40.254Z,101283.41
2022-12-20T06:31:41.792Z,101277.50
2022-12-20T06:35:43.346Z,101272.13
2022-12-20T06:39:44.824Z,101281.56
2022-12-20T06:43:46.306Z,101287.56
2022-12-20T06:47:47.771Z,101281.50
2022-12-20T06:51:49.442Z,101298.06
2022-12-20T06:55:51.356Z,101295.41
2022-12-20T06:59:52.804Z,101296.44
2022-12-20T07:03:54.292Z,101296.72
2022-12-20T07:07:55.808Z,101296.53
2022-12-20T07:11:57.958Z,101281.06
2022-12-20T07:16:01.238Z,101294.41
2022-12-20T07:20:07.588Z,101302.31
2022-12-20T07:24:12.588Z,101299.97
2022-12-20T07:28:14.134Z,101302.94
2022-12-20T07:32:15.650Z,101307.63
2022-12-20T07:36:17.192Z,101317.28
2022-12-20T07:40:18.713Z,101313.31
2022-12-20T07:44:20.173Z,101319.81
2022-12-20T07:48:22.238Z,101326.75
2022-12-20T07:52:28.124Z,101331.81
2022-12-20T07:56:36.035Z,101327.06
2022-12-20T08:00:42.438Z,101327.88
2022-12-20T08:04:44.381Z,101324.31
2022-12-20T08:08:54.818Z,101334.56
2022-12-20T08:12:57.826Z,101335.75
2022-12-20T08:16:59.422Z,101339.34
2022-12-20T08:21:01.183Z,101334.00
2022-12-20T08:25:02.884Z,101330.28
2022-12-20T08:29:04.594Z,101313.56
2022-12-20T08:33:06.201Z,101316.09
2022-12-20T08:37:14.596Z,101305.19
2022-12-20T08:41:16.909Z,101299.47
2022-12-20T08:45:19.379Z,101312.34
2022-12-20T08:49:20.893Z,101330.38
2022-12-20T08:53:22.416Z,101326.09
2022-12-20T08:57:23.933Z,101329.28
2022-12-20T09:01:27.123Z,101321.88
2022-12-20T09:05:28.769Z,101303.50
2022-12-20T09:09:30.229Z,101315.34
2022-12-20T09:13:31.682Z,101302.28
2022-12-20T09:17:33.124Z,101298.78
2022-12-20T09:21:35.193Z,101305.09
2022-12-20T09:25:37.614Z,101290.34
2022-12-20T09:29:39.101Z,101296.13
2022-12-20T09:33:41.658Z,101310.63
2022-12-20T09:37:43.168Z,101292.59
2022-12-20T09:41:44.892Z,101293.72
2022-12-20T09:45:48.740Z,101287.28
2022-12-20T09:49:55.071Z,101273.63
2022-12-20T09:54:28.597Z,101276.25
2022-12-20T09:58:32.821Z,101280.59
2022-12-20T10:02:57.026Z,101283.75
2022-12-20T10:07:16.294Z,101278.47
2022-12-20T10:11:50.180Z,101279.66
2022-12-20T10:16:07.694Z,101282.41
2022-12-20T10:20:44.703Z,101279.91
2022-12-20T10:25:10.291Z,101263.50
2022-12-20T10:29:11.916Z,101257.97
2022-12-20T10:33:20.360Z,101251.00
2022-12-20T10:37:21.926Z,101232.56
2022-12-20T10:41:30.985Z,101218.59
2022-12-20T10:45:36.272Z,101222.66
2022-12-20T10:49:41.013Z,101210.00
2022-12-20T10:54:01.303Z,101194.59
2022-12-20T10:58:13.762Z,101193.63
2022-12-20T11:02:24.141Z,101183.50
2022-12-20T11:06:42.511Z,101183.56
2022-12-20T11:10:45.016Z,101174.31
2022-12-20T11:14:49.072Z,101170.22
2022-12-20T11:19:21.982Z,101159.38
2022-12-20T11:23:32.727Z,101161.69
2022-12-20T11:27:53.244Z,101152.75
2022-12-20T11:32:13.383Z,101145.09
2022-12-20T11:36:31.694Z,101138.13
2022-12-20T11:40:41.444Z,101135.06
2022-12-20T11:45:08.810Z,101121.25
2022-12-20T11:49:34.020Z,101123.84
2022-12-20T11:53:42.103Z,101107.44
2022-12-20T12:02:33.037Z,101116.69
2022-12-20T12:06:41.011Z,101114.75
2022-12-20T12:10:51.049Z,101111.72
2022-12-20T12:15:03.391Z,101108.81
2022-12-20T12:19:10.614Z,101103.19
2022-12-20T12:23:30.903Z,101095.34
2022-12-20T12:27:32.899Z,101095.09
2022-12-20T12:31:41.224Z,101085.81
2022-12-20T12:36:19.996Z,101089.66
2022-12-20T12:40:58.763Z,101078.16
2022-12-20T12:45:25.268Z,101076.69
2022-12-20T12:49:30.215Z,101069.22
2022-12-20T12:53:45.790Z,101063.88
2022-12-20T12:57:58.155Z,101050.41
2022-12-20T13:02:03.943Z,101049.06
2022-12-20T13:06:23.702Z,101045.47
2022-12-20T13:10:29.490Z,101048.72
2022-12-20T13:14:30.939Z,101050.03
2022-12-20T13:18:32.639Z,101046.50
2022-12-20T13:22:34.253Z,101052.34
2022-12-20T13:26:49.765Z,101047.31
2022-12-20T13:30:54.216Z,101042.25
2022-12-20T13:34:57.264Z,101050.72
2022-12-20T13:39:01.921Z,101049.06
2022-12-20T13:43:25.917Z,101050.91
2022-12-20T13:47:42.022Z,101047.81
2022-12-20T13:51:43.483Z,101048.78
2022-12-20T13:55:45.442Z,101046.09
2022-12-20T13:59:55.390Z,101048.19
2022-12-20T14:04:07.304Z,101045.78
2022-12-20T14:08:15.087Z,101045.31
2022-12-20T14:12:25.308Z,101038.81
2022-12-20T14:16:31.608Z,101034.78
2022-12-20T14:20:37.704Z,101028.44
2022-12-20T14:24:44.545Z,101030.56
2022-12-20T14:28:49.568Z,101027.59
2022-12-20T14:32:51.063Z,101018.88
2022-12-20T14:36:52.782Z,101019.19
2022-12-20T14:40:55.890Z,101019.84
2022-12-20T14:45:27.674Z,101017.72
2022-12-20T14:49:31.565Z,101013.88
2022-12-20T14:53:35.990Z,101009.16
2022-12-20T14:57:45.412Z,101005.59
2022-12-20T15:01:46.945Z,101009.00
2022-12-20T15:05:51.812Z,101012.88
2022-12-20T15:09:53.259Z,101000.75
2022-12-20T15:13:56.211Z,101002.53
2022-12-20T15:17:57.751Z,100999.09
2022-12-20T15:22:00.144Z,100997.69
2022-12-20T15:26:01.843Z,100997.97
2022-12-20T15:30:07.045Z,100987.94
2022-12-20T15:34:29.127Z,100975.97
2022-12-20T15:38:54.767Z,100969.81
2022-12-20T15:42:52.080Z,100960.41
2022-12-20T15:46:54.016Z,100963.16
2022-12-20T15:50:59.664Z,100960.41
2022-12-20T15:55:01.300Z,100947.47
2022-12-20T15:59:17.808Z,100952.66
2022-12-20T16:03:28.693Z,100957.66
2022-12-20T16:07:30.552Z,100953.28
2022-12-20T16:11:32.748Z,100937.75
2022-12-20T16:15:34.653Z,100938.56
2022-12-20T16:19:36.194Z,100938.22
2022-12-20T16:23:37.673Z,100940.34
2022-12-20T16:27:39.117Z,100939.81
2022-12-20T16:31:42.346Z,100937.41
2022-12-20T16:35:43.958Z,100926.09
2022-12-20T16:39:45.785Z,100922.72
2022-12-20T16:43:50.135Z,100927.88
2022-12-20T16:47:53.082Z,100925.59
2022-12-20T16:51:54.549Z,100913.47
2022-12-20T16:55:56.007Z,100918.50
2022-12-20T16:59:57.575Z,100910.06
2022-12-20T17:03:59.294Z,100917.34
2022-12-20T17:08:01.324Z,100918.63
2022-12-20T17:12:04.305Z,100912.03
2022-12-20T17:16:06.487Z,100915.75
2022-12-20T17:20:08.334Z,100891.78
2022-12-20T17:24:18.639Z,100883.84
2022-12-20T17:28:20.162Z,100892.75
2022-12-20T17:32:24.439Z,100911.53
2022-12-20T17:36:29.731Z,100913.25
2022-12-20T17:40:34.559Z,100901.47
2022-12-20T17:44:36.358Z,100934.00
2022-12-20T17:48:43.550Z,100916.38
2022-12-20T17:52:46.038Z,100914.09
2022-12-20T17:56:49.558Z,100903.41
2022-12-20T18:00:51.122Z,100904.56
2022-12-20T18:04:52.991Z,100914.59
2022-12-20T18:08:56.373Z,100917.84
2022-12-20T18:12:57.877Z,100897.91
2022-12-20T18:16:59.444Z,100900.03
2022-12-20T18:21:02.841Z,100907.94
2022-12-20T18:25:08.226Z,100899.69
2022-12-20T18:29:10.779Z,100908.78
2022-12-20T18:33:12.457Z,100901.81
2022-12-20T18:37:13.998Z,100901.16
2022-12-20T18:41:18.848Z,100904.88
2022-12-20T18:45:20.361Z,100904.56
2022-12-20T18:49:21.794Z,100912.81
2022-12-20T18:53:23.320Z,100908.59
2022-12-20T18:57:27.799Z,100897.28
2022-12-20T19:01:32.177Z,100884.50
2022-12-20T19:05:34.282Z,100895.00
2022-12-20T19:09:35.840Z,100889.84
2022-12-20T19:13:38.741Z,100891.63
2022-12-20T19:17:40.292Z,100894.53
2022-12-20T19:21:42.223Z,100899.72
2022-12-20T19:25:43.710Z,100895.19
2022-12-20T19:29:45.169Z,100891.28
2022-12-20T19:33:47.640Z,100900.00
2022-12-20T19:37:49.137Z,100893.88
2022-12-20T19:46:13.718Z,100897.09
2022-12-20T19:50:15.343Z,100888.53
2022-12-20T19:54:16.912Z,100892.88
2022-12-20T19:58:18.459Z,100882.06
2022-12-20T20:02:20.173Z,100877.19
2022-12-20T20:06:22.730Z,100879.63
2022-12-20T20:10:24.181Z,100879.59
2022-12-20T20:14:25.647Z,100890.63
2022-12-20T20:18:28.209Z,100869.09
2022-12-20T20:22:29.633Z,100892.69
2022-12-20T20:26:33.964Z,100885.91
2022-12-20T20:30:35.501Z,100878.63
2022-12-20T20:34:37.049Z,100874.88
2022-12-20T20:38:41.636Z,100863.09
2022-12-20T20:42:43.126Z,100868.94
2022-12-20T20:46:44.930Z,100857.59
2022-12-20T20:50:46.812Z,100863.06
2022-12-20T20:54:48.361Z,100865.66
2022-12-20T20:58:50.564Z,100866.97
2022-12-20T21:02:52.181Z,100866.00
2022-12-20T21:06:53.977Z,100869.34
2022-12-20T21:10:55.568Z,100851.69
2022-12-20T21:19:18.611Z,100857.41
2022-12-20T21:23:20.173Z,100867.06
2022-12-20T21:27:21.686Z,100859.63
2022-12-20T21:31:23.368Z,100854.91
2022-12-20T21:35:29.362Z,100849.91
2022-12-20T21:39:30.827Z,100847.66
2022-12-20T21:43:32.980Z,100858.84
2022-12-20T21:47:35.739Z,100847.22
2022-12-20T21:51:37.264Z,100842.66
2022-12-20T21:55:38.720Z,100840.44
2022-12-20T21:59:44.734Z,100832.34
2022-12-20T22:03:54.395Z,100831.06
2022-12-20T22:07:56.093Z,100827.84
2022-12-20T22:11:58.059Z,100827.97
2022-12-20T22:16:00.290Z,100834.47
2022-12-20T22:20:01.960Z,100826.03
2022-12-20T22:24:12.275Z,100825.56
2022-12-20T22:28:13.833Z,100813.94
2022-12-20T22:32:15.301Z,100808.63
2022-12-20T22:36:17.260Z,100804.38
2022-12-20T22:40:19.550Z,100823.94
2022-12-20T22:44:21.236Z,100818.59
2022-12-20T22:48:23.065Z,100822.63
2022-12-20T22:52:24.553Z,100810.22
2022-12-20T22:56:27.416Z,100796.31
2022-12-20T23:00:28.899Z,100806.16
2022-12-20T23:04:30.399Z,100812.00
2022-12-20T23:08:34.570Z,100823.94
2022-12-20T23:12:54.696Z,100807.94
2022-12-20T23:16:56.288Z,100820.69
2022-12-20T23:21:16.294Z,100806.63
2022-12-20T23:25:19.609Z,100807.28
2022-12-20T23:29:21.109Z,100807.91
2022-12-20T23:33:22.546Z,100806.94
2022-12-20T23:37:23.983Z,100803.38
2022-12-20T23:41:25.448Z,100801.75
2022-12-20T23:45:26.909Z,100803.69
2022-12-20T23:49:28.355Z,100802.56
2022-12-20T23:53:30.274Z,100802.22
2022-12-20T23:57:31.797Z,100783.00
